TAF KINK
KINK 081720Z 0818/0918 21010KT P6SM SCT250=
METAR KINK
WC KINK
WS KINK
WV KINK